createdAt,value
2019-06-08T00:01:31.354Z,1.00
2019-06-08T00:04:03.454Z,0.93
2019-06-08T00:06:32.635Z,1.00
2019-06-08T00:09:02.221Z,1.07
2019-06-08T00:11:32.613Z,0.83
2019-06-08T00:14:05.622Z,1.10
2019-06-08T00:16:35.149Z,0.90
2019-06-08T00:19:05.298Z,0.90
2019-06-08T00:21:34.337Z,0.90
2019-06-08T00:24:06.545Z,0.97
2019-06-08T00:26:35.564Z,1.07
2019-06-08T00:29:05.418Z,1.03
2019-06-08T00:31:34.428Z,1.00
2019-06-08T00:34:03.612Z,1.17
2019-06-08T00:36:33.479Z,1.00
2019-06-08T00:39:08.189Z,1.13
2019-06-08T00:41:38.231Z,0.90
2019-06-08T00:44:11.174Z,1.10
2019-06-08T00:46:43.662Z,1.10
2019-06-08T00:49:16.455Z,1.10
2019-06-08T00:51:46.346Z,0.87
2019-06-08T00:54:17.345Z,0.93
2019-06-08T00:56:46.783Z,0.90
2019-06-08T00:59:19.899Z,0.90
2019-06-08T01:01:48.972Z,1.00
2019-06-08T01:04:18.632Z,0.93
2019-06-08T01:06:47.766Z,0.90
2019-06-08T01:09:18.030Z,1.03
2019-06-08T01:11:50.254Z,0.97
2019-06-08T01:14:22.935Z,1.00
2019-06-08T01:16:53.323Z,1.00
2019-06-08T01:19:23.139Z,1.00
2019-06-08T01:21:52.186Z,1.00
2019-06-08T01:24:25.640Z,0.83
2019-06-08T01:26:54.751Z,0.83
2019-06-08T01:29:24.140Z,0.90
2019-06-08T01:31:53.234Z,1.00
2019-06-08T01:34:29.040Z,1.00
2019-06-08T01:36:58.227Z,0.90
2019-06-08T01:39:32.563Z,1.00
2019-06-08T01:42:01.615Z,1.00
2019-06-08T01:44:32.091Z,0.80
2019-06-08T01:47:03.596Z,1.00
2019-06-08T01:49:38.882Z,1.10
2019-06-08T01:52:07.903Z,0.93
2019-06-08T01:54:37.849Z,1.13
2019-06-08T01:57:07.134Z,1.00
2019-06-08T01:59:36.181Z,1.00
2019-06-08T02:02:08.758Z,1.07
2019-06-08T02:04:37.789Z,1.30
2019-06-08T02:07:12.971Z,1.13
2019-06-08T02:09:45.246Z,1.00
2019-06-08T02:12:14.940Z,1.30
2019-06-08T02:14:43.986Z,1.10
2019-06-08T02:17:13.998Z,1.00
2019-06-08T02:19:49.371Z,1.60
2019-06-08T02:22:21.846Z,0.93
2019-06-08T02:24:52.106Z,0.90
2019-06-08T02:27:22.453Z,1.00
2019-06-08T02:29:51.602Z,1.20
2019-06-08T02:32:21.771Z,1.00
2019-06-08T02:34:54.660Z,1.13
2019-06-08T02:37:23.710Z,1.20
2019-06-08T02:39:54.189Z,1.10
2019-06-08T02:42:24.314Z,1.07
2019-06-08T02:44:56.439Z,1.17
2019-06-08T02:47:25.471Z,1.27
2019-06-08T02:50:01.453Z,1.10
2019-06-08T02:52:31.824Z,1.07
2019-06-08T02:55:09.213Z,1.50
2019-06-08T02:57:39.845Z,1.17
2019-06-08T03:00:10.812Z,1.20
2019-06-08T03:02:40.587Z,1.30
2019-06-08T03:05:10.880Z,1.07
2019-06-08T03:07:43.373Z,1.10
2019-06-08T03:15:25.829Z,1.30
2019-06-08T03:18:00.922Z,1.40
2019-06-08T03:20:31.625Z,1.10
2019-06-08T03:23:02.201Z,1.10
2019-06-08T03:25:50.800Z,1.30
2019-06-08T03:28:08.466Z,1.30
2019-06-08T03:30:51.442Z,1.10
2019-06-08T03:33:14.051Z,1.10
2019-06-08T03:35:52.063Z,1.47
2019-06-08T03:38:14.103Z,1.23
2019-06-08T03:40:45.168Z,1.33
2019-06-08T03:43:15.926Z,1.00
2019-06-08T03:45:46.071Z,1.20
2019-06-08T03:48:15.095Z,1.00
2019-06-08T03:50:46.331Z,1.10
2019-06-08T03:53:15.726Z,1.20
2019-06-08T03:55:46.995Z,1.20
2019-06-08T03:58:16.235Z,1.33
2019-06-08T04:00:47.170Z,1.30
2019-06-08T04:03:19.180Z,1.20
2019-06-08T04:05:50.001Z,1.07
2019-06-08T04:08:18.891Z,1.40
2019-06-08T04:10:50.214Z,1.03
2019-06-08T04:13:23.091Z,0.90
2019-06-08T04:15:53.435Z,1.17
2019-06-08T04:18:25.950Z,1.30
2019-06-08T04:20:56.914Z,1.30
2019-06-08T04:23:26.623Z,1.10
2019-06-08T04:25:55.706Z,1.20
2019-06-08T04:28:24.770Z,1.20
2019-06-08T04:30:57.349Z,1.20
2019-06-08T04:33:26.368Z,1.10
2019-06-08T04:35:58.925Z,1.23
2019-06-08T04:38:31.871Z,1.43
2019-06-08T04:41:00.941Z,1.40
2019-06-08T04:43:42.807Z,1.10
2019-06-08T04:46:18.111Z,1.27
2019-06-08T04:48:49.917Z,1.27
2019-06-08T04:51:22.052Z,1.00
2019-06-08T04:53:54.934Z,1.10
2019-06-08T04:56:24.705Z,1.10
2019-06-08T04:58:58.696Z,1.20
2019-06-08T05:01:27.754Z,1.33
2019-06-08T05:03:58.539Z,1.17
2019-06-08T05:06:33.297Z,1.23
2019-06-08T05:09:06.871Z,1.30
2019-06-08T05:11:36.815Z,1.43
2019-06-08T05:14:08.261Z,1.30
2019-06-08T05:16:43.246Z,1.30
2019-06-08T05:19:13.524Z,1.10
2019-06-08T05:24:18.786Z,1.40
2019-06-08T05:26:47.847Z,1.30
2019-06-08T05:29:18.324Z,1.20
2019-06-08T05:31:53.224Z,1.35
2019-06-08T05:34:22.297Z,1.65
2019-06-08T05:36:52.166Z,1.42
2019-06-08T05:39:22.765Z,1.70
2019-06-08T05:41:52.042Z,1.30
2019-06-08T05:44:21.205Z,1.47
2019-06-08T05:46:51.914Z,1.35
2019-06-08T05:49:21.363Z,1.27
2019-06-08T05:51:54.182Z,1.60
2019-06-08T05:54:23.266Z,1.20
2019-06-08T05:56:52.859Z,1.40
2019-06-08T05:59:21.971Z,1.40
2019-06-08T06:01:52.112Z,1.20
2019-06-08T06:04:21.143Z,1.40
2019-06-08T06:06:51.429Z,1.40
2019-06-08T06:09:21.813Z,1.22
2019-06-08T06:11:51.771Z,1.80
2019-06-08T06:14:27.645Z,1.82
2019-06-08T06:17:00.803Z,1.40
2019-06-08T06:19:29.891Z,1.57
2019-06-08T06:22:04.765Z,1.55
2019-06-08T06:24:33.861Z,1.75
2019-06-08T06:29:38.710Z,1.40
2019-06-08T06:32:11.594Z,1.40
2019-06-08T06:34:41.990Z,1.57
2019-06-08T06:37:12.956Z,1.20
2019-06-08T06:39:42.045Z,1.30
2019-06-08T06:42:14.223Z,1.27
2019-06-08T06:44:45.684Z,1.42
2019-06-08T06:47:16.129Z,1.55
2019-06-08T06:49:46.276Z,1.50
2019-06-08T06:52:16.433Z,1.70
2019-06-08T06:54:47.125Z,1.47
2019-06-08T06:57:16.557Z,1.47
2019-06-08T06:59:47.328Z,1.60
2019-06-08T07:02:16.825Z,1.50
2019-06-08T07:04:49.955Z,1.62
2019-06-08T07:07:19.552Z,1.40
2019-06-08T07:09:48.754Z,1.47
2019-06-08T07:12:17.836Z,1.57
2019-06-08T07:14:51.265Z,1.30
2019-06-08T07:17:23.491Z,1.40
2019-06-08T07:19:52.713Z,2.00
2019-06-08T07:22:24.694Z,1.80
2019-06-08T07:24:54.531Z,1.52
2019-06-08T07:27:26.533Z,1.62
2019-06-08T07:29:55.538Z,1.60
2019-06-08T07:32:26.024Z,1.72
2019-06-08T07:34:55.488Z,1.55
2019-06-08T07:37:27.598Z,2.37
2019-06-08T07:39:57.644Z,1.57
2019-06-08T07:42:28.454Z,1.30
2019-06-08T07:44:57.718Z,1.65
2019-06-08T07:47:30.633Z,1.50
2019-06-08T07:50:04.649Z,1.20
2019-06-08T07:52:35.945Z,1.47
2019-06-08T07:55:05.855Z,1.72
2019-06-08T07:57:36.439Z,1.30
2019-06-08T08:00:09.513Z,1.62
2019-06-08T08:02:38.378Z,1.98
2019-06-08T08:05:09.098Z,1.67
2019-06-08T08:07:38.114Z,1.47
2019-06-08T08:10:12.314Z,1.40
2019-06-08T08:12:41.588Z,1.30
2019-06-08T08:15:11.903Z,1.60
2019-06-08T08:17:40.947Z,1.50
2019-06-08T08:20:12.982Z,1.40
2019-06-08T08:22:42.298Z,1.52
2019-06-08T08:25:15.207Z,1.60
2019-06-08T08:27:44.246Z,1.45
2019-06-08T08:30:17.344Z,1.90
2019-06-08T08:32:48.082Z,1.35
2019-06-08T08:35:18.538Z,1.47
2019-06-08T08:37:53.372Z,1.50
2019-06-08T08:40:20.565Z,1.70
2019-06-08T08:42:51.041Z,1.45
2019-06-08T08:45:21.034Z,1.50
2019-06-08T08:48:05.925Z,1.70
2019-06-08T08:50:23.134Z,1.60
2019-06-08T08:52:54.170Z,1.50
2019-06-08T08:55:23.723Z,1.87
2019-06-08T08:57:59.433Z,1.62
2019-06-08T09:00:32.050Z,1.52
2019-06-08T09:03:24.352Z,1.72
2019-06-08T09:05:38.051Z,1.40
2019-06-08T09:08:09.906Z,1.42
2019-06-08T09:10:38.974Z,1.62
2019-06-08T09:13:12.314Z,1.42
2019-06-08T09:15:41.324Z,1.65
2019-06-08T09:18:14.072Z,1.40
2019-06-08T09:20:47.876Z,1.80
2019-06-08T09:23:22.215Z,1.65
2019-06-08T09:25:55.072Z,1.60
2019-06-08T09:28:23.067Z,1.60
2019-06-08T09:30:52.109Z,1.50
2019-06-08T09:33:21.432Z,1.60
2019-06-08T09:35:53.026Z,1.40
2019-06-08T09:38:28.493Z,1.98
2019-06-08T09:40:59.871Z,1.50
2019-06-08T09:43:28.948Z,1.50
2019-06-08T09:46:03.612Z,1.37
2019-06-08T09:48:35.120Z,1.22
2019-06-08T09:51:08.602Z,1.37
2019-06-08T09:53:41.719Z,1.95
2019-06-08T09:56:10.129Z,1.50
2019-06-08T09:58:43.025Z,1.50
2019-06-08T10:01:12.519Z,1.50
2019-06-08T10:03:48.110Z,1.67
2019-06-08T10:06:18.278Z,1.45
2019-06-08T10:08:48.044Z,1.60
2019-06-08T10:11:17.239Z,1.52
2019-06-08T10:13:49.714Z,1.40
2019-06-08T10:16:19.665Z,1.50
2019-06-08T10:18:52.837Z,1.70
2019-06-08T10:21:23.099Z,1.30
2019-06-08T10:23:52.166Z,1.82
2019-06-08T10:26:22.706Z,1.50
2019-06-08T10:28:55.234Z,1.67
2019-06-08T10:31:36.569Z,1.60
2019-06-08T10:34:01.820Z,1.62
2019-06-08T10:36:29.630Z,2.60
2019-06-08T10:39:03.881Z,1.60
2019-06-08T10:41:32.771Z,1.50
2019-06-08T10:44:03.388Z,1.82
2019-06-08T10:46:40.358Z,1.60
2019-06-08T10:49:14.387Z,1.57
2019-06-08T10:51:42.325Z,1.50
2019-06-08T10:54:17.499Z,1.50
2019-06-08T10:56:48.591Z,1.57
2019-06-08T10:59:21.060Z,1.40
2019-06-08T11:01:50.081Z,1.80
2019-06-08T11:04:20.649Z,1.60
2019-06-08T11:06:49.698Z,1.50
2019-06-08T11:09:20.867Z,1.50
2019-06-08T11:11:51.751Z,1.35
2019-06-08T11:14:22.814Z,1.40
2019-06-08T11:16:54.638Z,1.50
2019-06-08T11:19:26.427Z,1.62
2019-06-08T11:22:00.493Z,1.70
2019-06-08T11:24:29.001Z,1.20
2019-06-08T11:27:00.018Z,1.70
2019-06-08T11:29:30.683Z,1.70
2019-06-08T11:32:02.023Z,1.52
2019-06-08T11:34:32.255Z,1.47
2019-06-08T11:37:03.621Z,1.40
2019-06-08T11:39:33.241Z,1.35
2019-06-08T11:42:04.402Z,1.40
2019-06-08T11:44:35.577Z,1.85
2019-06-08T11:47:09.420Z,1.50
2019-06-08T11:49:38.676Z,1.85
2019-06-08T11:52:09.074Z,1.80
2019-06-08T11:54:42.440Z,1.40
2019-06-08T11:57:13.123Z,1.75
2019-06-08T11:59:44.052Z,1.42
2019-06-08T12:02:14.221Z,1.32
2019-06-08T12:04:44.145Z,1.60
2019-06-08T12:07:19.418Z,1.75
2019-06-08T12:09:54.233Z,1.42
2019-06-08T12:12:24.610Z,1.57
2019-06-08T12:14:54.290Z,1.42
2019-06-08T12:17:23.354Z,1.45
2019-06-08T12:19:54.178Z,1.40
2019-06-08T12:22:23.218Z,1.82
2019-06-08T12:24:53.501Z,1.62
2019-06-08T12:27:30.076Z,1.32
2019-06-08T12:29:54.894Z,1.45
2019-06-08T12:32:23.973Z,1.40
2019-06-08T12:34:53.418Z,1.40
2019-06-08T12:37:23.194Z,2.00
2019-06-08T12:39:53.777Z,1.62
2019-06-08T12:42:25.015Z,1.40
2019-06-08T12:44:55.975Z,1.50
2019-06-08T12:47:27.406Z,1.40
2019-06-08T12:49:58.480Z,1.50
2019-06-08T12:52:29.698Z,1.72
2019-06-08T12:55:06.067Z,1.80
2019-06-08T12:57:30.125Z,1.52
2019-06-08T13:00:00.265Z,2.02
2019-06-08T13:02:29.375Z,1.52
2019-06-08T13:05:01.820Z,1.70
2019-06-08T13:07:30.870Z,1.60
2019-06-08T13:10:03.764Z,1.45
2019-06-08T13:12:33.671Z,1.50
2019-06-08T13:15:04.134Z,1.50
2019-06-08T13:17:38.059Z,1.72
2019-06-08T13:20:14.844Z,1.60
2019-06-08T13:22:47.999Z,1.72
2019-06-08T13:25:36.382Z,1.40
2019-06-08T13:27:50.232Z,1.25
2019-06-08T13:30:26.354Z,1.52
2019-06-08T13:32:57.985Z,1.65
2019-06-08T13:35:30.613Z,1.55
2019-06-08T13:38:00.743Z,2.30
2019-06-08T13:40:30.675Z,1.42
2019-06-08T13:43:01.443Z,1.50
2019-06-08T13:45:34.090Z,1.45
2019-06-08T13:48:05.164Z,1.52
2019-06-08T13:50:38.084Z,1.50
2019-06-08T13:53:10.602Z,1.57
2019-06-08T13:55:53.245Z,1.70
2019-06-08T13:58:13.455Z,1.42
2019-06-08T14:00:42.697Z,1.40
2019-06-08T14:03:13.644Z,1.40
2019-06-08T14:05:48.997Z,1.32
2019-06-08T14:08:20.513Z,1.70
2019-06-08T14:10:54.971Z,1.40
2019-06-08T14:13:33.897Z,1.40
2019-06-08T14:16:00.051Z,1.82
2019-06-08T14:18:34.139Z,1.65
2019-06-08T14:21:02.795Z,1.50
2019-06-08T14:23:41.337Z,1.10
2019-06-08T14:26:12.419Z,1.55
2019-06-08T14:28:43.221Z,1.40
2019-06-08T14:31:21.582Z,1.67
2019-06-08T14:33:52.776Z,1.32
2019-06-08T14:36:29.081Z,1.30
2019-06-08T14:39:02.275Z,1.67
2019-06-08T14:41:31.632Z,1.60
2019-06-08T14:44:08.290Z,1.22
2019-06-08T14:46:40.828Z,1.30
2019-06-08T14:49:09.866Z,1.77
2019-06-08T14:51:42.520Z,1.85
2019-06-08T14:54:20.873Z,1.30
2019-06-08T14:56:54.519Z,1.30
2019-06-08T14:59:25.471Z,1.25
2019-06-08T15:02:00.253Z,1.60
2019-06-08T15:04:36.420Z,1.57
2019-06-08T15:07:04.020Z,1.40
2019-06-08T15:09:37.582Z,1.35
2019-06-08T15:12:09.038Z,1.70
2019-06-08T15:14:38.480Z,1.30
2019-06-08T15:17:11.619Z,1.52
2019-06-08T15:19:40.684Z,1.75
2019-06-08T15:22:12.650Z,1.92
2019-06-08T15:24:41.719Z,1.55
2019-06-08T15:27:10.859Z,1.70
2019-06-08T15:29:41.826Z,1.30
2019-06-08T15:32:14.085Z,1.50
2019-06-08T15:34:43.144Z,1.35
2019-06-08T15:37:12.097Z,2.00
2019-06-08T15:39:41.141Z,1.70
2019-06-08T15:42:13.579Z,1.70
2019-06-08T15:44:42.787Z,1.95
2019-06-08T15:47:17.773Z,2.58
2019-06-08T15:49:52.514Z,2.42
2019-06-08T15:52:22.363Z,1.70
2019-06-08T15:54:58.263Z,1.72
2019-06-08T15:57:29.585Z,1.85
2019-06-08T15:59:58.562Z,1.32
2019-06-08T16:02:29.477Z,1.80
2019-06-08T16:05:02.169Z,1.57
2019-06-08T16:07:35.684Z,1.50
2019-06-08T16:10:10.378Z,1.85
2019-06-08T16:12:45.511Z,2.30
2019-06-08T16:15:16.662Z,2.02
2019-06-08T16:17:46.533Z,2.20
2019-06-08T16:20:20.203Z,2.10
2019-06-08T16:22:53.040Z,1.50
2019-06-08T16:25:25.630Z,1.70
2019-06-08T16:27:55.580Z,1.70
2019-06-08T16:30:26.910Z,1.80
2019-06-08T16:32:56.172Z,1.50
2019-06-08T16:35:29.637Z,1.45
2019-06-08T16:38:01.756Z,1.70
2019-06-08T16:40:32.230Z,1.27
2019-06-08T16:43:04.577Z,1.57
2019-06-08T16:45:35.857Z,1.47
2019-06-08T16:48:04.858Z,1.52
2019-06-08T16:50:34.362Z,1.30
2019-06-08T16:53:04.938Z,1.40
2019-06-08T16:55:38.427Z,1.95
2019-06-08T16:58:11.396Z,1.30
2019-06-08T17:00:44.022Z,1.55
2019-06-08T17:03:13.542Z,1.60
2019-06-08T17:05:44.006Z,2.05
2019-06-08T17:08:16.790Z,1.17
2019-06-08T17:10:49.578Z,1.22
2019-06-08T17:13:18.599Z,1.67
2019-06-08T17:15:48.862Z,1.70
2019-06-08T17:18:19.206Z,1.42
2019-06-08T17:20:50.245Z,1.40
2019-06-08T17:23:19.285Z,1.30
2019-06-08T17:25:49.694Z,1.30
2019-06-08T17:28:20.538Z,1.40
2019-06-08T17:30:52.720Z,1.37
2019-06-08T17:33:27.374Z,1.57
2019-06-08T17:35:59.845Z,1.60
2019-06-08T17:38:29.820Z,1.30
2019-06-08T17:41:03.711Z,1.60
2019-06-08T17:43:38.552Z,1.70
2019-06-08T17:46:08.116Z,1.63
2019-06-08T17:48:42.985Z,1.30
2019-06-08T17:51:14.477Z,1.30
2019-06-08T17:53:46.640Z,1.67
2019-06-08T17:56:16.669Z,1.55
2019-06-08T17:58:45.729Z,1.70
2019-06-08T18:01:16.188Z,1.70
2019-06-08T18:03:49.070Z,1.40
2019-06-08T18:06:18.677Z,1.50
2019-06-08T18:08:48.119Z,1.50
2019-06-08T18:11:17.494Z,2.00
2019-06-08T18:13:48.359Z,1.87
2019-06-08T18:16:18.870Z,1.40
2019-06-08T18:18:48.051Z,1.60
2019-06-08T18:21:17.882Z,1.45
2019-06-08T18:23:48.142Z,1.60
2019-06-08T18:26:18.298Z,1.45
2019-06-08T18:28:48.488Z,1.90
2019-06-08T18:31:18.679Z,1.50
2019-06-08T18:33:50.136Z,1.70
2019-06-08T18:36:18.382Z,1.57
2019-06-08T18:38:48.536Z,1.40
2019-06-08T18:41:19.651Z,1.40
2019-06-08T18:43:52.536Z,1.30
2019-06-08T18:46:20.759Z,1.50
2019-06-08T18:48:49.794Z,1.30
2019-06-08T18:51:18.983Z,1.22
2019-06-08T18:54:07.086Z,1.20
2019-06-08T18:56:22.239Z,1.80
2019-06-08T18:58:53.631Z,1.70
2019-06-08T19:01:23.602Z,2.00
2019-06-08T19:03:54.826Z,1.70
2019-06-08T19:06:24.292Z,1.73
2019-06-08T19:08:54.169Z,1.50
2019-06-08T19:11:23.845Z,1.72
2019-06-08T19:13:54.814Z,1.57
2019-06-08T19:16:23.889Z,1.80
2019-06-08T19:18:54.810Z,1.40
2019-06-08T19:21:23.850Z,1.35
2019-06-08T19:23:54.763Z,1.40
2019-06-08T19:26:28.018Z,1.67
2019-06-08T19:28:57.801Z,2.00
2019-06-08T19:31:27.654Z,1.47
2019-06-08T19:33:58.055Z,1.90
2019-06-08T19:36:28.573Z,1.80
2019-06-08T19:39:01.155Z,2.00
2019-06-08T19:41:32.590Z,1.50
2019-06-08T19:44:01.626Z,1.60
2019-06-08T19:46:31.406Z,1.90
2019-06-08T19:49:00.863Z,1.50
2019-06-08T19:51:30.501Z,1.60
2019-06-08T19:54:00.408Z,1.60
2019-06-08T19:56:31.110Z,1.60
2019-06-08T19:59:04.993Z,1.57
2019-06-08T20:01:32.226Z,1.77
2019-06-08T20:04:01.720Z,1.60
2019-06-08T20:06:30.750Z,1.80
2019-06-08T20:09:01.524Z,1.70
2019-06-08T20:11:33.924Z,1.73
2019-06-08T20:14:04.834Z,1.83
2019-06-08T20:16:37.202Z,1.77
2019-06-08T20:19:07.971Z,1.70
2019-06-08T20:21:38.111Z,1.70
2019-06-08T20:24:10.846Z,1.63
2019-06-08T20:26:39.840Z,1.90
2019-06-08T20:29:13.556Z,2.00
2019-06-08T20:31:39.596Z,1.90
2019-06-08T20:34:08.902Z,2.10
2019-06-08T20:36:42.403Z,1.70
2019-06-08T20:39:11.942Z,1.70
2019-06-08T20:41:41.757Z,2.30
2019-06-08T20:44:11.023Z,2.10
2019-06-08T20:46:39.991Z,2.10
2019-06-08T20:49:10.240Z,1.70
2019-06-08T20:51:42.853Z,1.90
2019-06-08T20:54:11.880Z,2.60
2019-06-08T20:56:44.965Z,2.17
2019-06-08T20:59:29.232Z,1.87
2019-06-08T21:01:50.466Z,2.10
2019-06-08T21:04:20.881Z,1.80
2019-06-08T21:06:51.566Z,2.43
2019-06-08T21:09:27.859Z,2.13
2019-06-08T21:11:58.608Z,2.10
2019-06-08T21:14:30.689Z,1.77
2019-06-08T21:16:59.737Z,2.40
2019-06-08T21:19:29.465Z,2.00
2019-06-08T21:22:00.249Z,2.17
2019-06-08T21:24:29.266Z,2.17
2019-06-08T21:27:00.768Z,1.90
2019-06-08T21:29:47.462Z,2.00
2019-06-08T21:32:08.134Z,1.70
2019-06-08T21:34:41.109Z,2.57
2019-06-08T21:37:10.602Z,2.03
2019-06-08T21:39:49.896Z,1.80
2019-06-08T21:42:16.503Z,2.00
2019-06-08T21:44:53.068Z,1.67
2019-06-08T21:47:21.285Z,2.10
2019-06-08T21:49:51.657Z,1.90
2019-06-08T21:52:21.778Z,1.73
2019-06-08T21:54:52.261Z,2.00
2019-06-08T21:57:23.035Z,1.47
2019-06-08T22:00:10.659Z,1.60
2019-06-08T22:02:24.507Z,1.97
2019-06-08T22:05:00.733Z,1.70
2019-06-08T22:07:28.262Z,1.90
2019-06-08T22:09:59.171Z,1.67
2019-06-08T22:12:28.122Z,1.80
2019-06-08T22:14:59.321Z,1.73
2019-06-08T22:17:30.969Z,2.03
2019-06-08T22:20:01.108Z,1.50
2019-06-08T22:22:33.291Z,2.00
2019-06-08T22:25:03.592Z,1.50
2019-06-08T22:27:38.244Z,2.00
2019-06-08T22:30:11.639Z,1.67
2019-06-08T22:32:38.684Z,1.90
2019-06-08T22:35:13.300Z,1.67
2019-06-08T22:37:42.342Z,1.70
2019-06-08T22:40:17.433Z,1.50
2019-06-08T22:42:47.928Z,1.43
2019-06-08T22:45:17.690Z,1.60
2019-06-08T22:47:47.943Z,1.70
2019-06-08T22:50:20.890Z,1.43
2019-06-08T22:52:53.972Z,1.70
2019-06-08T22:55:23.664Z,1.70
2019-06-08T22:57:53.835Z,1.67
2019-06-08T23:00:28.057Z,1.60
2019-06-08T23:03:01.055Z,1.80
2019-06-08T23:05:33.877Z,1.90
2019-06-08T23:08:05.148Z,1.67
2019-06-08T23:10:37.296Z,1.60
2019-06-08T23:13:08.546Z,2.03
2019-06-08T23:15:38.837Z,1.73
2019-06-08T23:18:09.346Z,2.17
2019-06-08T23:20:44.791Z,1.97
2019-06-08T23:23:17.911Z,2.10
2019-06-08T23:25:53.258Z,1.50
2019-06-08T23:28:23.208Z,2.00
2019-06-08T23:31:07.734Z,1.90
2019-06-08T23:33:27.772Z,1.90
2019-06-08T23:36:35.183Z,1.63
2019-06-08T23:38:29.138Z,1.70
2019-06-08T23:41:00.825Z,1.77
2019-06-08T23:43:32.174Z,1.60
2019-06-08T23:46:02.436Z,2.00
2019-06-08T23:48:37.461Z,1.77
2019-06-08T23:51:11.069Z,1.90
2019-06-08T23:53:40.214Z,1.90
2019-06-08T23:56:15.017Z,1.80
2019-06-08T23:58:44.558Z,1.50
